sensor_id;sensor_type;location;lat;lon;timestamp;P1;durP1;ratioP1;P2;durP2;ratioP2
71290;SDS011;59073;51.994;4.448;2023-04-06T00:00:50;17.45;;;17.32;;
71290;SDS011;59073;51.994;4.448;2023-04-06T00:03:15;16.14;;;16.01;;
71290;SDS011;59073;51.994;4.448;2023-04-06T00:05:41;16.85;;;16.53;;
71290;SDS011;59073;51.994;4.448;2023-04-06T00:08:07;16.08;;;15.80;;
71290;SDS011;59073;51.994;4.448;2023-04-06T00:10:33;17.31;;;17.06;;
71290;SDS011;59073;51.994;4.448;2023-04-06T00:12:59;16.33;;;16.00;;
71290;SDS011;59073;51.994;4.448;2023-04-06T00:15:25;16.51;;;16.27;;
71290;SDS011;59073;51.994;4.448;2023-04-06T00:17:51;16.26;;;16.01;;
71290;SDS011;59073;51.994;4.448;2023-04-06T00:20:16;15.86;;;15.71;;
71290;SDS011;59073;51.994;4.448;2023-04-06T00:22:42;16.33;;;16.13;;
71290;SDS011;59073;51.994;4.448;2023-04-06T00:25:08;14.49;;;14.31;;
71290;SDS011;59073;51.994;4.448;2023-04-06T00:27:35;14.13;;;14.07;;
71290;SDS011;59073;51.994;4.448;2023-04-06T00:30:01;13.50;;;13.38;;
71290;SDS011;59073;51.994;4.448;2023-04-06T00:32:28;13.25;;;13.09;;
71290;SDS011;59073;51.994;4.448;2023-04-06T00:34:53;13.46;;;13.23;;
71290;SDS011;59073;51.994;4.448;2023-04-06T00:37:19;12.15;;;12.04;;
71290;SDS011;59073;51.994;4.448;2023-04-06T00:39:44;12.08;;;11.91;;
71290;SDS011;59073;51.994;4.448;2023-04-06T00:42:13;12.44;;;12.27;;
71290;SDS011;59073;51.994;4.448;2023-04-06T00:44:42;12.04;;;11.84;;
71290;SDS011;59073;51.994;4.448;2023-04-06T00:47:08;11.79;;;11.52;;
71290;SDS011;59073;51.994;4.448;2023-04-06T00:49:33;11.46;;;11.30;;
71290;SDS011;59073;51.994;4.448;2023-04-06T00:51:59;11.93;;;11.77;;
71290;SDS011;59073;51.994;4.448;2023-04-06T00:54:26;11.06;;;10.98;;
71290;SDS011;59073;51.994;4.448;2023-04-06T00:56:51;11.09;;;11.09;;
71290;SDS011;59073;51.994;4.448;2023-04-06T00:59:17;10.67;;;10.65;;
71290;SDS011;59073;51.994;4.448;2023-04-06T01:01:42;11.27;;;11.22;;
71290;SDS011;59073;51.994;4.448;2023-04-06T01:04:08;11.12;;;11.02;;
71290;SDS011;59073;51.994;4.448;2023-04-06T01:06:33;11.65;;;11.55;;
71290;SDS011;59073;51.994;4.448;2023-04-06T01:08:59;10.59;;;10.47;;
71290;SDS011;59073;51.994;4.448;2023-04-06T01:11:24;10.77;;;10.68;;
71290;SDS011;59073;51.994;4.448;2023-04-06T01:13:51;11.61;;;11.50;;
71290;SDS011;59073;51.994;4.448;2023-04-06T01:16:16;11.06;;;11.04;;
71290;SDS011;59073;51.994;4.448;2023-04-06T01:18:42;11.08;;;11.08;;
71290;SDS011;59073;51.994;4.448;2023-04-06T01:21:08;11.05;;;11.04;;
71290;SDS011;59073;51.994;4.448;2023-04-06T01:23:40;10.99;;;10.92;;
71290;SDS011;59073;51.994;4.448;2023-04-06T01:26:09;11.30;;;11.24;;
71290;SDS011;59073;51.994;4.448;2023-04-06T01:28:35;11.49;;;11.36;;
71290;SDS011;59073;51.994;4.448;2023-04-06T01:31:02;11.77;;;11.64;;
71290;SDS011;59073;51.994;4.448;2023-04-06T01:33:28;11.25;;;11.13;;
71290;SDS011;59073;51.994;4.448;2023-04-06T01:35:53;11.77;;;11.67;;
71290;SDS011;59073;51.994;4.448;2023-04-06T01:38:19;11.40;;;11.33;;
71290;SDS011;59073;51.994;4.448;2023-04-06T01:40:44;10.80;;;10.77;;
71290;SDS011;59073;51.994;4.448;2023-04-06T01:43:10;11.09;;;11.00;;
71290;SDS011;59073;51.994;4.448;2023-04-06T01:45:35;11.44;;;11.33;;
71290;SDS011;59073;51.994;4.448;2023-04-06T01:48:00;11.16;;;11.01;;
71290;SDS011;59073;51.994;4.448;2023-04-06T01:50:26;11.30;;;11.22;;
71290;SDS011;59073;51.994;4.448;2023-04-06T01:52:51;11.48;;;11.38;;
71290;SDS011;59073;51.994;4.448;2023-04-06T01:55:17;11.59;;;11.50;;
71290;SDS011;59073;51.994;4.448;2023-04-06T01:57:42;11.29;;;11.22;;
71290;SDS011;59073;51.994;4.448;2023-04-06T02:00:08;11.93;;;11.76;;
71290;SDS011;59073;51.994;4.448;2023-04-06T02:02:33;12.09;;;11.97;;
71290;SDS011;59073;51.994;4.448;2023-04-06T02:04:59;12.01;;;11.91;;
71290;SDS011;59073;51.994;4.448;2023-04-06T02:07:24;12.01;;;11.88;;
71290;SDS011;59073;51.994;4.448;2023-04-06T02:09:53;11.61;;;11.44;;
71290;SDS011;59073;51.994;4.448;2023-04-06T02:12:19;11.46;;;11.31;;
71290;SDS011;59073;51.994;4.448;2023-04-06T02:14:45;11.82;;;11.69;;
71290;SDS011;59073;51.994;4.448;2023-04-06T02:17:10;12.18;;;12.14;;
71290;SDS011;59073;51.994;4.448;2023-04-06T02:19:36;11.81;;;11.70;;
71290;SDS011;59073;51.994;4.448;2023-04-06T02:22:01;12.45;;;12.32;;
71290;SDS011;59073;51.994;4.448;2023-04-06T02:24:26;12.38;;;12.23;;
71290;SDS011;59073;51.994;4.448;2023-04-06T02:26:52;12.25;;;12.19;;
71290;SDS011;59073;51.994;4.448;2023-04-06T02:29:17;12.38;;;12.26;;
71290;SDS011;59073;51.994;4.448;2023-04-06T02:31:43;12.70;;;12.59;;
71290;SDS011;59073;51.994;4.448;2023-04-06T02:34:08;13.10;;;13.01;;
71290;SDS011;59073;51.994;4.448;2023-04-06T02:36:36;12.50;;;12.38;;
71290;SDS011;59073;51.994;4.448;2023-04-06T02:39:02;12.37;;;12.22;;
71290;SDS011;59073;51.994;4.448;2023-04-06T02:41:28;13.00;;;12.86;;
71290;SDS011;59073;51.994;4.448;2023-04-06T02:43:53;12.89;;;12.77;;
71290;SDS011;59073;51.994;4.448;2023-04-06T02:46:19;12.55;;;12.43;;
71290;SDS011;59073;51.994;4.448;2023-04-06T02:48:45;12.97;;;12.78;;
71290;SDS011;59073;51.994;4.448;2023-04-06T02:51:10;13.47;;;13.25;;
71290;SDS011;59073;51.994;4.448;2023-04-06T02:53:36;12.51;;;12.38;;
71290;SDS011;59073;51.994;4.448;2023-04-06T02:56:01;12.98;;;12.81;;
71290;SDS011;59073;51.994;4.448;2023-04-06T02:58:26;12.99;;;12.86;;
71290;SDS011;59073;51.994;4.448;2023-04-06T03:00:52;12.73;;;12.58;;
71290;SDS011;59073;51.994;4.448;2023-04-06T03:03:17;13.32;;;13.15;;
71290;SDS011;59073;51.994;4.448;2023-04-06T03:05:43;13.19;;;13.09;;
71290;SDS011;59073;51.994;4.448;2023-04-06T03:08:08;12.50;;;12.36;;
71290;SDS011;59073;51.994;4.448;2023-04-06T03:10:33;12.92;;;12.84;;
71290;SDS011;59073;51.994;4.448;2023-04-06T03:12:59;13.23;;;13.12;;
71290;SDS011;59073;51.994;4.448;2023-04-06T03:15:24;13.19;;;12.98;;
71290;SDS011;59073;51.994;4.448;2023-04-06T03:17:50;13.04;;;12.86;;
71290;SDS011;59073;51.994;4.448;2023-04-06T03:20:15;12.72;;;12.58;;
71290;SDS011;59073;51.994;4.448;2023-04-06T03:22:41;12.63;;;12.41;;
71290;SDS011;59073;51.994;4.448;2023-04-06T03:25:06;13.30;;;13.11;;
71290;SDS011;59073;51.994;4.448;2023-04-06T03:27:32;13.23;;;12.94;;
71290;SDS011;59073;51.994;4.448;2023-04-06T03:29:57;12.89;;;12.76;;
71290;SDS011;59073;51.994;4.448;2023-04-06T03:32:23;13.26;;;13.07;;
71290;SDS011;59073;51.994;4.448;2023-04-06T03:34:48;13.44;;;13.30;;
71290;SDS011;59073;51.994;4.448;2023-04-06T03:37:13;13.52;;;13.40;;
71290;SDS011;59073;51.994;4.448;2023-04-06T03:39:39;13.61;;;13.48;;
71290;SDS011;59073;51.994;4.448;2023-04-06T03:42:05;12.91;;;12.77;;
71290;SDS011;59073;51.994;4.448;2023-04-06T03:44:31;12.81;;;12.67;;
71290;SDS011;59073;51.994;4.448;2023-04-06T03:46:56;13.58;;;13.27;;
71290;SDS011;59073;51.994;4.448;2023-04-06T03:49:22;13.59;;;13.44;;
71290;SDS011;59073;51.994;4.448;2023-04-06T03:51:47;13.48;;;13.29;;
71290;SDS011;59073;51.994;4.448;2023-04-06T03:54:13;14.62;;;14.32;;
71290;SDS011;59073;51.994;4.448;2023-04-06T03:56:38;14.89;;;14.47;;
71290;SDS011;59073;51.994;4.448;2023-04-06T03:59:04;14.43;;;14.14;;
71290;SDS011;59073;51.994;4.448;2023-04-06T04:01:29;13.96;;;13.80;;
71290;SDS011;59073;51.994;4.448;2023-04-06T04:03:55;13.39;;;13.26;;
71290;SDS011;59073;51.994;4.448;2023-04-06T04:06:20;14.68;;;14.44;;
71290;SDS011;59073;51.994;4.448;2023-04-06T04:08:46;13.99;;;13.76;;
71290;SDS011;59073;51.994;4.448;2023-04-06T04:11:11;14.12;;;13.84;;
71290;SDS011;59073;51.994;4.448;2023-04-06T04:13:37;14.63;;;14.51;;
71290;SDS011;59073;51.994;4.448;2023-04-06T04:16:02;13.88;;;13.74;;
71290;SDS011;59073;51.994;4.448;2023-04-06T04:18:27;15.27;;;15.06;;
71290;SDS011;59073;51.994;4.448;2023-04-06T04:20:53;15.53;;;15.35;;
71290;SDS011;59073;51.994;4.448;2023-04-06T04:23:18;15.04;;;14.89;;
71290;SDS011;59073;51.994;4.448;2023-04-06T04:25:44;14.82;;;14.57;;
71290;SDS011;59073;51.994;4.448;2023-04-06T04:28:09;16.00;;;15.72;;
71290;SDS011;59073;51.994;4.448;2023-04-06T04:30:35;15.15;;;15.02;;
71290;SDS011;59073;51.994;4.448;2023-04-06T04:33:00;15.69;;;15.52;;
71290;SDS011;59073;51.994;4.448;2023-04-06T04:35:26;16.09;;;15.76;;
71290;SDS011;59073;51.994;4.448;2023-04-06T04:37:51;16.11;;;15.78;;
71290;SDS011;59073;51.994;4.448;2023-04-06T04:40:17;15.31;;;15.15;;
71290;SDS011;59073;51.994;4.448;2023-04-06T04:42:42;15.34;;;15.14;;
71290;SDS011;59073;51.994;4.448;2023-04-06T04:45:08;16.28;;;16.09;;
71290;SDS011;59073;51.994;4.448;2023-04-06T04:47:34;15.60;;;15.40;;
71290;SDS011;59073;51.994;4.448;2023-04-06T04:49:59;15.44;;;15.25;;
71290;SDS011;59073;51.994;4.448;2023-04-06T04:52:25;15.21;;;14.98;;
71290;SDS011;59073;51.994;4.448;2023-04-06T04:54:50;15.83;;;15.63;;
71290;SDS011;59073;51.994;4.448;2023-04-06T04:57:16;15.57;;;15.40;;
71290;SDS011;59073;51.994;4.448;2023-04-06T04:59:42;15.83;;;15.59;;
71290;SDS011;59073;51.994;4.448;2023-04-06T05:02:08;15.85;;;15.76;;
71290;SDS011;59073;51.994;4.448;2023-04-06T05:04:33;15.19;;;15.16;;
71290;SDS011;59073;51.994;4.448;2023-04-06T05:07:05;15.98;;;15.77;;
71290;SDS011;59073;51.994;4.448;2023-04-06T05:09:32;16.90;;;16.66;;
71290;SDS011;59073;51.994;4.448;2023-04-06T05:11:58;16.24;;;15.79;;
71290;SDS011;59073;51.994;4.448;2023-04-06T05:14:25;15.94;;;15.71;;
71290;SDS011;59073;51.994;4.448;2023-04-06T05:16:51;17.34;;;17.00;;
71290;SDS011;59073;51.994;4.448;2023-04-06T05:19:17;16.99;;;16.64;;
71290;SDS011;59073;51.994;4.448;2023-04-06T05:21:42;16.12;;;15.82;;
71290;SDS011;59073;51.994;4.448;2023-04-06T05:24:08;17.27;;;17.04;;
71290;SDS011;59073;51.994;4.448;2023-04-06T05:26:33;17.09;;;16.84;;
71290;SDS011;59073;51.994;4.448;2023-04-06T05:28:59;17.47;;;17.09;;
71290;SDS011;59073;51.994;4.448;2023-04-06T05:31:25;17.71;;;17.44;;
71290;SDS011;59073;51.994;4.448;2023-04-06T05:33:50;18.06;;;17.68;;
71290;SDS011;59073;51.994;4.448;2023-04-06T05:36:16;18.09;;;17.85;;
71290;SDS011;59073;51.994;4.448;2023-04-06T05:38:41;17.93;;;17.69;;
71290;SDS011;59073;51.994;4.448;2023-04-06T05:41:07;18.00;;;17.79;;
71290;SDS011;59073;51.994;4.448;2023-04-06T05:43:32;18.02;;;17.81;;
71290;SDS011;59073;51.994;4.448;2023-04-06T05:45:57;18.46;;;18.13;;
71290;SDS011;59073;51.994;4.448;2023-04-06T05:48:23;17.88;;;17.67;;
71290;SDS011;59073;51.994;4.448;2023-04-06T05:50:49;18.55;;;18.31;;
71290;SDS011;59073;51.994;4.448;2023-04-06T05:53:15;18.55;;;18.24;;
71290;SDS011;59073;51.994;4.448;2023-04-06T05:55:41;18.80;;;18.49;;
71290;SDS011;59073;51.994;4.448;2023-04-06T05:58:06;18.66;;;18.35;;
71290;SDS011;59073;51.994;4.448;2023-04-06T06:00:32;18.61;;;18.35;;
71290;SDS011;59073;51.994;4.448;2023-04-06T06:02:57;19.14;;;18.93;;
71290;SDS011;59073;51.994;4.448;2023-04-06T06:05:23;18.93;;;18.50;;
71290;SDS011;59073;51.994;4.448;2023-04-06T06:07:48;18.05;;;17.95;;
71290;SDS011;59073;51.994;4.448;2023-04-06T06:10:14;18.86;;;18.63;;
71290;SDS011;59073;51.994;4.448;2023-04-06T06:12:39;18.93;;;18.65;;
71290;SDS011;59073;51.994;4.448;2023-04-06T06:15:05;19.55;;;19.16;;
71290;SDS011;59073;51.994;4.448;2023-04-06T06:17:31;20.10;;;19.62;;
71290;SDS011;59073;51.994;4.448;2023-04-06T06:19:56;20.13;;;19.84;;
71290;SDS011;59073;51.994;4.448;2023-04-06T06:22:22;20.63;;;20.21;;
71290;SDS011;59073;51.994;4.448;2023-04-06T06:24:47;19.06;;;18.63;;
71290;SDS011;59073;51.994;4.448;2023-04-06T06:27:14;19.47;;;19.21;;
71290;SDS011;59073;51.994;4.448;2023-04-06T06:29:40;19.38;;;19.10;;
71290;SDS011;59073;51.994;4.448;2023-04-06T06:32:06;19.29;;;19.00;;
71290;SDS011;59073;51.994;4.448;2023-04-06T06:34:34;20.15;;;19.78;;
71290;SDS011;59073;51.994;4.448;2023-04-06T06:36:59;19.65;;;19.41;;
71290;SDS011;59073;51.994;4.448;2023-04-06T06:39:25;19.50;;;19.23;;
71290;SDS011;59073;51.994;4.448;2023-04-06T06:41:51;19.76;;;19.47;;
71290;SDS011;59073;51.994;4.448;2023-04-06T06:44:17;19.24;;;19.13;;
71290;SDS011;59073;51.994;4.448;2023-04-06T06:46:42;18.53;;;18.33;;
71290;SDS011;59073;51.994;4.448;2023-04-06T06:49:09;19.03;;;18.80;;
71290;SDS011;59073;51.994;4.448;2023-04-06T06:51:36;18.81;;;18.55;;
71290;SDS011;59073;51.994;4.448;2023-04-06T06:54:01;19.43;;;19.15;;
71290;SDS011;59073;51.994;4.448;2023-04-06T06:56:27;20.41;;;20.03;;
71290;SDS011;59073;51.994;4.448;2023-04-06T06:58:52;19.60;;;19.40;;
71290;SDS011;59073;51.994;4.448;2023-04-06T07:01:18;19.50;;;19.32;;
71290;SDS011;59073;51.994;4.448;2023-04-06T07:03:43;18.83;;;18.57;;
71290;SDS011;59073;51.994;4.448;2023-04-06T07:06:09;19.45;;;19.23;;
71290;SDS011;59073;51.994;4.448;2023-04-06T07:08:34;20.07;;;19.72;;
71290;SDS011;59073;51.994;4.448;2023-04-06T07:11:00;19.64;;;19.36;;
71290;SDS011;59073;51.994;4.448;2023-04-06T07:13:25;18.84;;;18.58;;
71290;SDS011;59073;51.994;4.448;2023-04-06T07:15:52;20.25;;;19.82;;
71290;SDS011;59073;51.994;4.448;2023-04-06T07:18:18;19.24;;;19.08;;
71290;SDS011;59073;51.994;4.448;2023-04-06T07:20:44;18.95;;;18.84;;
71290;SDS011;59073;51.994;4.448;2023-04-06T07:23:10;18.09;;;17.94;;
71290;SDS011;59073;51.994;4.448;2023-04-06T07:25:35;16.31;;;16.11;;
71290;SDS011;59073;51.994;4.448;2023-04-06T07:28:02;13.72;;;13.68;;
71290;SDS011;59073;51.994;4.448;2023-04-06T07:30:28;13.00;;;12.96;;
71290;SDS011;59073;51.994;4.448;2023-04-06T07:32:54;14.64;;;14.60;;
71290;SDS011;59073;51.994;4.448;2023-04-06T07:35:23;15.61;;;15.49;;
71290;SDS011;59073;51.994;4.448;2023-04-06T07:37:49;15.52;;;15.46;;
71290;SDS011;59073;51.994;4.448;2023-04-06T07:40:15;16.46;;;16.35;;
71290;SDS011;59073;51.994;4.448;2023-04-06T07:42:40;16.21;;;16.07;;
71290;SDS011;59073;51.994;4.448;2023-04-06T07:45:06;16.58;;;16.29;;
71290;SDS011;59073;51.994;4.448;2023-04-06T07:47:32;16.84;;;16.82;;
71290;SDS011;59073;51.994;4.448;2023-04-06T07:49:58;16.98;;;16.83;;
71290;SDS011;59073;51.994;4.448;2023-04-06T07:52:23;17.82;;;17.57;;
71290;SDS011;59073;51.994;4.448;2023-04-06T07:54:49;17.49;;;17.35;;
71290;SDS011;59073;51.994;4.448;2023-04-06T07:57:14;17.94;;;17.80;;
71290;SDS011;59073;51.994;4.448;2023-04-06T07:59:40;18.53;;;18.30;;
71290;SDS011;59073;51.994;4.448;2023-04-06T08:02:06;19.33;;;19.16;;
71290;SDS011;59073;51.994;4.448;2023-04-06T08:04:32;18.84;;;18.77;;
71290;SDS011;59073;51.994;4.448;2023-04-06T08:06:57;19.34;;;19.27;;
71290;SDS011;59073;51.994;4.448;2023-04-06T08:09:22;20.67;;;20.60;;
71290;SDS011;59073;51.994;4.448;2023-04-06T08:11:48;21.78;;;21.55;;
71290;SDS011;59073;51.994;4.448;2023-04-06T08:14:14;19.93;;;19.77;;
71290;SDS011;59073;51.994;4.448;2023-04-06T08:16:40;20.89;;;20.73;;
71290;SDS011;59073;51.994;4.448;2023-04-06T08:19:06;20.36;;;20.20;;
71290;SDS011;59073;51.994;4.448;2023-04-06T08:21:34;20.20;;;20.00;;
71290;SDS011;59073;51.994;4.448;2023-04-06T08:24:00;18.47;;;18.21;;
71290;SDS011;59073;51.994;4.448;2023-04-06T08:26:26;18.22;;;17.97;;
71290;SDS011;59073;51.994;4.448;2023-04-06T08:28:52;17.92;;;17.85;;
71290;SDS011;59073;51.994;4.448;2023-04-06T08:31:17;16.69;;;16.59;;
71290;SDS011;59073;51.994;4.448;2023-04-06T08:33:42;14.95;;;14.86;;
71290;SDS011;59073;51.994;4.448;2023-04-06T08:36:12;14.56;;;14.41;;
71290;SDS011;59073;51.994;4.448;2023-04-06T08:38:39;12.77;;;12.76;;
71290;SDS011;59073;51.994;4.448;2023-04-06T08:41:09;13.02;;;13.01;;
71290;SDS011;59073;51.994;4.448;2023-04-06T08:43:43;12.65;;;12.64;;
71290;SDS011;59073;51.994;4.448;2023-04-06T08:46:11;12.36;;;12.32;;
71290;SDS011;59073;51.994;4.448;2023-04-06T08:48:41;10.96;;;10.91;;
71290;SDS011;59073;51.994;4.448;2023-04-06T08:51:07;11.84;;;11.80;;
71290;SDS011;59073;51.994;4.448;2023-04-06T08:53:34;11.39;;;11.32;;
71290;SDS011;59073;51.994;4.448;2023-04-06T08:55:59;11.67;;;11.59;;
71290;SDS011;59073;51.994;4.448;2023-04-06T08:58:28;10.34;;;10.30;;
71290;SDS011;59073;51.994;4.448;2023-04-06T09:01:05;10.38;;;10.36;;
71290;SDS011;59073;51.994;4.448;2023-04-06T09:03:38;9.66;;;9.63;;
71290;SDS011;59073;51.994;4.448;2023-04-06T09:06:05;9.89;;;9.88;;
71290;SDS011;59073;51.994;4.448;2023-04-06T09:08:32;9.96;;;9.83;;
71290;SDS011;59073;51.994;4.448;2023-04-06T09:10:59;9.30;;;9.17;;
71290;SDS011;59073;51.994;4.448;2023-04-06T09:13:26;9.03;;;9.01;;
71290;SDS011;59073;51.994;4.448;2023-04-06T09:15:58;8.69;;;8.67;;
71290;SDS011;59073;51.994;4.448;2023-04-06T09:18:28;8.18;;;8.13;;
71290;SDS011;59073;51.994;4.448;2023-04-06T09:21:02;8.00;;;7.98;;
71290;SDS011;59073;51.994;4.448;2023-04-06T09:23:29;9.00;;;8.96;;
71290;SDS011;59073;51.994;4.448;2023-04-06T09:31:22;7.93;;;7.89;;
71290;SDS011;59073;51.994;4.448;2023-04-06T09:33:49;7.94;;;7.90;;
71290;SDS011;59073;51.994;4.448;2023-04-06T09:36:15;8.05;;;8.05;;
71290;SDS011;59073;51.994;4.448;2023-04-06T09:39:00;8.20;;;8.14;;
71290;SDS011;59073;51.994;4.448;2023-04-06T09:41:31;8.12;;;8.08;;
71290;SDS011;59073;51.994;4.448;2023-04-06T09:44:07;8.15;;;8.07;;
71290;SDS011;59073;51.994;4.448;2023-04-06T09:46:40;8.13;;;8.12;;
71290;SDS011;59073;51.994;4.448;2023-04-06T09:49:09;8.08;;;8.04;;
71290;SDS011;59073;51.994;4.448;2023-04-06T09:54:15;8.10;;;8.07;;
71290;SDS011;59073;51.994;4.448;2023-04-06T09:56:48;8.39;;;8.37;;
71290;SDS011;59073;51.994;4.448;2023-04-06T09:59:27;8.24;;;8.17;;
71290;SDS011;59073;51.994;4.448;2023-04-06T10:02:17;7.54;;;7.54;;
71290;SDS011;59073;51.994;4.448;2023-04-06T10:05:41;8.15;;;8.08;;
71290;SDS011;59073;51.994;4.448;2023-04-06T10:07:45;8.59;;;8.55;;
71290;SDS011;59073;51.994;4.448;2023-04-06T10:10:15;7.70;;;7.66;;
71290;SDS011;59073;51.994;4.448;2023-04-06T10:12:41;7.49;;;7.48;;
71290;SDS011;59073;51.994;4.448;2023-04-06T10:15:10;8.04;;;8.03;;
71290;SDS011;59073;51.994;4.448;2023-04-06T10:17:35;8.10;;;8.08;;
71290;SDS011;59073;51.994;4.448;2023-04-06T10:20:09;8.30;;;8.26;;
71290;SDS011;59073;51.994;4.448;2023-04-06T10:22:43;8.61;;;8.57;;
71290;SDS011;59073;51.994;4.448;2023-04-06T10:25:31;8.77;;;8.71;;
71290;SDS011;59073;51.994;4.448;2023-04-06T10:28:01;9.13;;;9.11;;
71290;SDS011;59073;51.994;4.448;2023-04-06T10:30:33;8.63;;;8.63;;
71290;SDS011;59073;51.994;4.448;2023-04-06T10:32:59;8.88;;;8.86;;
71290;SDS011;59073;51.994;4.448;2023-04-06T10:35:35;8.94;;;8.94;;
71290;SDS011;59073;51.994;4.448;2023-04-06T10:38:05;8.02;;;8.02;;
71290;SDS011;59073;51.994;4.448;2023-04-06T10:40:31;8.31;;;8.31;;
71290;SDS011;59073;51.994;4.448;2023-04-06T10:43:06;7.61;;;7.59;;
71290;SDS011;59073;51.994;4.448;2023-04-06T10:45:34;8.02;;;7.93;;
71290;SDS011;59073;51.994;4.448;2023-04-06T10:48:00;7.73;;;7.68;;
71290;SDS011;59073;51.994;4.448;2023-04-06T10:50:50;7.33;;;7.32;;
71290;SDS011;59073;51.994;4.448;2023-04-06T10:53:20;7.32;;;7.32;;
71290;SDS011;59073;51.994;4.448;2023-04-06T10:55:47;7.68;;;7.68;;
71290;SDS011;59073;51.994;4.448;2023-04-06T10:58:15;7.84;;;7.83;;
71290;SDS011;59073;51.994;4.448;2023-04-06T11:00:44;7.86;;;7.86;;
71290;SDS011;59073;51.994;4.448;2023-04-06T11:03:14;8.20;;;8.20;;
71290;SDS011;59073;51.994;4.448;2023-04-06T11:05:46;8.03;;;8.03;;
71290;SDS011;59073;51.994;4.448;2023-04-06T11:08:32;8.22;;;8.21;;
71290;SDS011;59073;51.994;4.448;2023-04-06T11:13:36;8.66;;;8.66;;
71290;SDS011;59073;51.994;4.448;2023-04-06T11:16:22;8.18;;;8.18;;
71290;SDS011;59073;51.994;4.448;2023-04-06T11:18:56;7.82;;;7.82;;
71290;SDS011;59073;51.994;4.448;2023-04-06T11:21:33;7.79;;;7.79;;
71290;SDS011;59073;51.994;4.448;2023-04-06T11:24:04;8.23;;;8.23;;
71290;SDS011;59073;51.994;4.448;2023-04-06T11:26:36;7.97;;;7.97;;
71290;SDS011;59073;51.994;4.448;2023-04-06T11:29:09;7.64;;;7.64;;
71290;SDS011;59073;51.994;4.448;2023-04-06T11:31:46;7.64;;;7.64;;
71290;SDS011;59073;51.994;4.448;2023-04-06T11:34:13;8.24;;;8.24;;
71290;SDS011;59073;51.994;4.448;2023-04-06T11:36:43;8.20;;;8.20;;
71290;SDS011;59073;51.994;4.448;2023-04-06T11:39:11;8.17;;;8.17;;
71290;SDS011;59073;51.994;4.448;2023-04-06T11:41:37;8.63;;;8.63;;
71290;SDS011;59073;51.994;4.448;2023-04-06T11:44:03;7.86;;;7.86;;
71290;SDS011;59073;51.994;4.448;2023-04-06T11:46:30;8.30;;;8.30;;
71290;SDS011;59073;51.994;4.448;2023-04-06T11:48:59;8.19;;;8.19;;
71290;SDS011;59073;51.994;4.448;2023-04-06T11:51:25;7.81;;;7.81;;
71290;SDS011;59073;51.994;4.448;2023-04-06T11:53:52;7.96;;;7.96;;
71290;SDS011;59073;51.994;4.448;2023-04-06T11:58:50;7.80;;;7.80;;
71290;SDS011;59073;51.994;4.448;2023-04-06T12:01:16;7.80;;;7.80;;
71290;SDS011;59073;51.994;4.448;2023-04-06T12:03:42;8.08;;;8.08;;
71290;SDS011;59073;51.994;4.448;2023-04-06T12:06:07;7.54;;;7.54;;
71290;SDS011;59073;51.994;4.448;2023-04-06T12:08:33;7.52;;;7.52;;
71290;SDS011;59073;51.994;4.448;2023-04-06T12:10:58;7.38;;;7.38;;
71290;SDS011;59073;51.994;4.448;2023-04-06T12:13:24;7.64;;;7.64;;
71290;SDS011;59073;51.994;4.448;2023-04-06T12:15:49;7.15;;;7.15;;
71290;SDS011;59073;51.994;4.448;2023-04-06T12:18:15;7.40;;;7.40;;
71290;SDS011;59073;51.994;4.448;2023-04-06T12:20:40;7.51;;;7.51;;
71290;SDS011;59073;51.994;4.448;2023-04-06T12:23:06;7.60;;;7.60;;
71290;SDS011;59073;51.994;4.448;2023-04-06T12:25:31;6.83;;;6.83;;
71290;SDS011;59073;51.994;4.448;2023-04-06T12:27:57;6.43;;;6.43;;
71290;SDS011;59073;51.994;4.448;2023-04-06T12:30:22;6.64;;;6.63;;
71290;SDS011;59073;51.994;4.448;2023-04-06T12:32:48;7.12;;;7.11;;
71290;SDS011;59073;51.994;4.448;2023-04-06T12:35:15;6.94;;;6.94;;
71290;SDS011;59073;51.994;4.448;2023-04-06T12:37:40;6.92;;;6.92;;
71290;SDS011;59073;51.994;4.448;2023-04-06T12:40:07;6.42;;;6.41;;
71290;SDS011;59073;51.994;4.448;2023-04-06T12:42:33;6.45;;;6.45;;
71290;SDS011;59073;51.994;4.448;2023-04-06T12:44:58;6.74;;;6.74;;
71290;SDS011;59073;51.994;4.448;2023-04-06T12:47:25;6.67;;;6.67;;
71290;SDS011;59073;51.994;4.448;2023-04-06T12:49:51;6.13;;;6.13;;
71290;SDS011;59073;51.994;4.448;2023-04-06T12:52:16;5.98;;;5.98;;
71290;SDS011;59073;51.994;4.448;2023-04-06T12:54:42;6.03;;;6.03;;
71290;SDS011;59073;51.994;4.448;2023-04-06T12:57:07;6.15;;;6.15;;
71290;SDS011;59073;51.994;4.448;2023-04-06T12:59:33;5.93;;;5.93;;
71290;SDS011;59073;51.994;4.448;2023-04-06T13:02:00;5.80;;;5.80;;
71290;SDS011;59073;51.994;4.448;2023-04-06T13:04:26;5.61;;;5.61;;
71290;SDS011;59073;51.994;4.448;2023-04-06T13:06:51;5.71;;;5.71;;
71290;SDS011;59073;51.994;4.448;2023-04-06T13:09:16;5.60;;;5.60;;
71290;SDS011;59073;51.994;4.448;2023-04-06T13:11:42;5.43;;;5.43;;
71290;SDS011;59073;51.994;4.448;2023-04-06T13:14:07;5.72;;;5.72;;
71290;SDS011;59073;51.994;4.448;2023-04-06T13:16:33;5.59;;;5.59;;
71290;SDS011;59073;51.994;4.448;2023-04-06T13:18:58;6.25;;;6.25;;
71290;SDS011;59073;51.994;4.448;2023-04-06T13:21:24;5.89;;;5.89;;
71290;SDS011;59073;51.994;4.448;2023-04-06T13:23:49;5.92;;;5.92;;
71290;SDS011;59073;51.994;4.448;2023-04-06T13:26:15;5.82;;;5.82;;
71290;SDS011;59073;51.994;4.448;2023-04-06T13:28:41;5.14;;;5.14;;
71290;SDS011;59073;51.994;4.448;2023-04-06T13:31:07;4.91;;;4.91;;
71290;SDS011;59073;51.994;4.448;2023-04-06T13:33:33;4.94;;;4.94;;
71290;SDS011;59073;51.994;4.448;2023-04-06T13:35:59;5.32;;;5.31;;
71290;SDS011;59073;51.994;4.448;2023-04-06T13:38:24;5.74;;;5.74;;
71290;SDS011;59073;51.994;4.448;2023-04-06T13:40:50;5.26;;;5.26;;
71290;SDS011;59073;51.994;4.448;2023-04-06T13:43:16;5.51;;;5.51;;
71290;SDS011;59073;51.994;4.448;2023-04-06T13:45:48;5.80;;;5.80;;
71290;SDS011;59073;51.994;4.448;2023-04-06T13:48:15;6.04;;;6.04;;
71290;SDS011;59073;51.994;4.448;2023-04-06T13:50:40;5.98;;;5.98;;
71290;SDS011;59073;51.994;4.448;2023-04-06T13:53:05;6.40;;;6.40;;
71290;SDS011;59073;51.994;4.448;2023-04-06T13:55:31;5.87;;;5.87;;
71290;SDS011;59073;51.994;4.448;2023-04-06T13:57:56;6.04;;;6.04;;
71290;SDS011;59073;51.994;4.448;2023-04-06T14:00:22;5.91;;;5.91;;
71290;SDS011;59073;51.994;4.448;2023-04-06T14:02:48;5.69;;;5.65;;
71290;SDS011;59073;51.994;4.448;2023-04-06T14:05:14;5.78;;;5.77;;
71290;SDS011;59073;51.994;4.448;2023-04-06T14:07:39;5.53;;;5.53;;
71290;SDS011;59073;51.994;4.448;2023-04-06T14:10:05;5.65;;;5.65;;
71290;SDS011;59073;51.994;4.448;2023-04-06T14:12:38;5.63;;;5.63;;
71290;SDS011;59073;51.994;4.448;2023-04-06T14:15:04;5.68;;;5.66;;
71290;SDS011;59073;51.994;4.448;2023-04-06T14:17:30;5.70;;;5.70;;
71290;SDS011;59073;51.994;4.448;2023-04-06T14:19:56;5.51;;;5.51;;
71290;SDS011;59073;51.994;4.448;2023-04-06T14:22:21;5.40;;;5.40;;
71290;SDS011;59073;51.994;4.448;2023-04-06T14:24:47;5.48;;;5.48;;
71290;SDS011;59073;51.994;4.448;2023-04-06T14:27:12;5.95;;;5.95;;
71290;SDS011;59073;51.994;4.448;2023-04-06T14:29:38;5.51;;;5.51;;
71290;SDS011;59073;51.994;4.448;2023-04-06T14:32:04;5.69;;;5.69;;
71290;SDS011;59073;51.994;4.448;2023-04-06T14:34:29;5.99;;;5.99;;
71290;SDS011;59073;51.994;4.448;2023-04-06T14:36:55;6.24;;;6.17;;
71290;SDS011;59073;51.994;4.448;2023-04-06T14:39:20;5.98;;;5.97;;
71290;SDS011;59073;51.994;4.448;2023-04-06T14:41:46;6.00;;;6.00;;